No particular awareness of the weather is required.    There are no Weather-warnings


Meteo18 Weather Cam more information Meteo18 Weather Cam


Thunder radar more information blitzortung!


Rain radar more information rain snow radar


Visit our other weather sites:

Template documentation
and downloads

And another site



Weather Underground History page Text

Daily Summary for June 2, 2017 Units:  English    Metric   Both
« Previous Day
Next Day »
Daily Weekly Monthly Yearly Custom
  High: Low: Average:
Temperature: 82 °F 57.7 °F 70.7 °F
Dew Point: 64.6 °F 55.9 °F 60.8 °F
Humidity: 96 % 49 % 73 %
Wind Speed: 9 mph 0 mph 1.9 mph
Wind Gust: 17 mph - -
Wind:- - SW
Pressure: 30.1 in 30 in -
Precipitation: 0 in    
Historical Graphs
 
 
Tabular Data for June 2, 2017
Time Temperature Dew Point Pressure Wind Wind Speed Wind Gust Humidity Rainfall Rate (Hourly)
00:02 65.1 °F 59.9 °F 30.1 in NNW 1 mph 2 mph 83 % 0 in
00:12 64.8 °F 59.9 °F 30.1 in Calm   2 mph 84 % 0 in
00:17 64.6 °F 59.7 °F 30.1 in Calm   2 mph 84 % 0 in
00:22 64 °F 59.4 °F 30.1 in Calm   2 mph 85 % 0 in
00:27 63.9 °F 59.2 °F 30.1 in Calm     85 % 0 in
00:32 63.5 °F 58.8 °F 30.1 in Calm     85 % 0 in
00:37 63.1 °F 58.8 °F 30.1 in Calm     86 % 0 in
00:42 62.6 °F 58.3 °F 30.1 in Calm     86 % 0 in
00:47 62.2 °F 58.3 °F 30.1 in Calm     87 % 0 in
00:52 62.2 °F 59 °F 30.1 in Calm     89 % 0 in
00:57 62.4 °F 59.2 °F 30.1 in Calm   1 mph 89 % 0 in
01:02 62.4 °F 58.8 °F 30.1 in Calm   1 mph 88 % 0 in
01:07 62.2 °F 59 °F 30.1 in Calm   1 mph 89 % 0 in
01:12 62.1 °F 58.8 °F 30.1 in Calm     89 % 0 in
01:17 62.1 °F 58.8 °F 30.1 in Calm     89 % 0 in
01:22 62.1 °F 58.8 °F 30.1 in East 1 mph   89 % 0 in
01:32 61.9 °F 58.6 °F 30.1 in Calm   2 mph 89 % 0 in
01:37 61.9 °F 58.6 °F 30.1 in Calm   2 mph 89 % 0 in
01:42 61.2 °F 57.6 °F 30.1 in Calm   2 mph 88 % 0 in
01:47 61.2 °F 58.5 °F 30.1 in Calm   2 mph 91 % 0 in
01:52 61.3 °F 58.5 °F 30.1 in Calm   2 mph 90 % 0 in
02:02 60.6 °F 57.7 °F 30.1 in Calm   1 mph 90 % 0 in
02:12 60.4 °F 57.7 °F 30.1 in WNW 2 mph 2 mph 91 % 0 in
02:17 60.8 °F 58.5 °F 30.1 in WNW 3 mph 3 mph 92 % 0 in
02:22 61.3 °F 59 °F 30.1 in WNW 1 mph 3 mph 92 % 0 in
02:27 61.3 °F 58.5 °F 30.1 in Calm   3 mph 90 % 0 in
02:32 61.2 °F 58.3 °F 30.1 in North 2 mph 3 mph 90 % 0 in
02:37 61 °F 58.1 °F 30.1 in NNW 2 mph 3 mph 90 % 0 in
02:42 61 °F 58.1 °F 30.1 in North 3 mph 3 mph 90 % 0 in
02:47 60.8 °F 58.1 °F 30.1 in NNW 1 mph 3 mph 91 % 0 in
02:52 61 °F 58.3 °F 30.1 in NNW 1 mph 3 mph 91 % 0 in
02:57 61.2 °F 58.3 °F 30.1 in Calm   3 mph 90 % 0 in
03:02 60.8 °F 57.9 °F 30.1 in East 2 mph 3 mph 90 % 0 in
03:12 60.3 °F 57.6 °F 30.1 in Calm   3 mph 91 % 0 in
03:17 60.3 °F 57.6 °F 30.1 in Calm   3 mph 91 % 0 in
03:22 60.1 °F 57.4 °F 30.1 in Calm   1 mph 91 % 0 in
03:27 60.3 °F 57.9 °F 30.1 in WNW 1 mph 1 mph 92 % 0 in
03:32 60.3 °F 57.6 °F 30.1 in Calm   1 mph 91 % 0 in
03:37 60.4 °F 58.1 °F 30.1 in Calm   1 mph 92 % 0 in
03:42 60.3 °F 57.6 °F 30.1 in NNE 2 mph 2 mph 91 % 0 in
03:47 59.9 °F 57.2 °F 30.1 in Calm   2 mph 91 % 0 in
03:52 59.4 °F 56.7 °F 30.1 in North 1 mph 2 mph 91 % 0 in
03:57 59.2 °F 56.8 °F 30.1 in Calm   2 mph 92 % 0 in
04:02 59.2 °F 57.2 °F 30.1 in NNW 1 mph 2 mph 93 % 0 in
04:07 59.4 °F 57 °F 30.1 in WNW 1 mph 2 mph 92 % 0 in
04:12 59.2 °F 57.2 °F 30.1 in Calm   2 mph 93 % 0 in
04:17 59.2 °F 57.2 °F 30.1 in Calm   2 mph 93 % 0 in
04:22 59.4 °F 57.6 °F 30.1 in NNW 1 mph 2 mph 94 % 0 in
04:27 59.5 °F 57.6 °F 30.1 in Calm   2 mph 93 % 0 in
04:32 59.4 °F 57.4 °F 30.1 in NNW 1 mph 2 mph 93 % 0 in
04:37 59.5 °F 57.7 °F 30.1 in Calm   2 mph 94 % 0 in
04:42 59.4 °F 57.4 °F 30.1 in NW 1 mph 1 mph 93 % 0 in
04:47 59 °F 57 °F 30.1 in NW 1 mph 1 mph 93 % 0 in
04:52 59.4 °F 57.6 °F 30.1 in Calm   1 mph 94 % 0 in
04:57 59.2 °F 57.2 °F 30.1 in Calm   1 mph 93 % 0 in
05:02 58.8 °F 56.8 °F 30.1 in Calm   1 mph 93 % 0 in
05:12 58.5 °F 56.7 °F 30.1 in Calm   1 mph 94 % 0 in
05:17 58.5 °F 56.7 °F 30.1 in Calm   1 mph 94 % 0 in
05:22 58.6 °F 56.8 °F 30.1 in Calm   1 mph 94 % 0 in
05:27 58.5 °F 56.7 °F 30.1 in Calm   1 mph 94 % 0 in
05:32 58.3 °F 56.5 °F 30.1 in Calm   1 mph 94 % 0 in
05:37 57.9 °F 56.1 °F 30.1 in Calm     94 % 0 in
05:42 57.7 °F 55.9 °F 30.1 in Calm   1 mph 94 % 0 in
05:47 57.9 °F 56.5 °F 30.1 in Calm   1 mph 95 % 0 in
05:52 57.9 °F 56.5 °F 30.1 in Calm   1 mph 95 % 0 in
05:57 57.9 °F 56.5 °F 30.1 in Calm   1 mph 95 % 0 in
06:02 58.5 °F 57.4 °F 30.1 in Calm     96 % 0 in
06:07 58.5 °F 57 °F 30.1 in Calm     95 % 0 in
06:12 58.3 °F 56.8 °F 30.1 in Calm     95 % 0 in
06:17 58.6 °F 57.6 °F 30.1 in Calm     96 % 0 in
06:22 59.2 °F 58.1 °F 30.1 in Calm     96 % 0 in
06:27 59.2 °F 57.7 °F 30.1 in Calm     95 % 0 in
06:32 59 °F 57.6 °F 30.1 in Calm     95 % 0 in
06:42 59.4 °F 57.6 °F 30.1 in Calm     94 % 0 in
06:47 59.4 °F 57.6 °F 30.1 in Calm     94 % 0 in
06:57 59.7 °F 57.9 °F 30.1 in Calm     94 % 0 in
07:02 59.9 °F 58.1 °F 30.1 in Calm     94 % 0 in
07:12 61.3 °F 59.9 °F 30.1 in Calm     95 % 0 in
07:17 62.1 °F 60.3 °F 30.1 in Calm     94 % 0 in
07:22 62.4 °F 60.1 °F 30.1 in Calm     92 % 0 in
07:27 62.2 °F 59.5 °F 30.1 in Calm     91 % 0 in
07:32 62.6 °F 60.3 °F 30.1 in Calm     92 % 0 in
07:37 63.7 °F 61.3 °F 30.1 in Calm     92 % 0 in
07:42 64.2 °F 60.6 °F 30.1 in Calm     88 % 0 in
07:47 64.8 °F 60.8 °F 30.1 in Calm   1 mph 87 % 0 in
07:52 65.1 °F 60.4 °F 30.1 in Calm   1 mph 85 % 0 in
07:57 65.7 °F 60.4 °F 30.1 in Calm   1 mph 83 % 0 in
08:02 66 °F 60.6 °F 30.1 in Calm     83 % 0 in
08:07 65.7 °F 60.4 °F 30.1 in Calm   2 mph 83 % 0 in
08:12 66 °F 60.6 °F 30.1 in Calm   2 mph 83 % 0 in
08:17 66.7 °F 61.3 °F 30.1 in Calm   2 mph 83 % 0 in
08:22 66.6 °F 61 °F 30.1 in SE 2 mph 2 mph 82 % 0 in
08:27 66.2 °F 60.6 °F 30.1 in Calm   4 mph 82 % 0 in
08:32 66.2 °F 60.8 °F 30.1 in Calm   4 mph 83 % 0 in
08:37 66.4 °F 60.8 °F 30.1 in SSW 1 mph 4 mph 82 % 0 in
08:42 66.7 °F 61.3 °F 30.1 in Calm   3 mph 83 % 0 in
08:47 66.9 °F 61 °F 30.1 in Calm   3 mph 81 % 0 in
08:52 66.9 °F 61.2 °F 30.1 in Calm   4 mph 82 % 0 in
08:57 67.3 °F 61.9 °F 30.1 in Calm   4 mph 83 % 0 in
09:02 67.5 °F 61.3 °F 30.1 in Calm   3 mph 81 % 0 in
09:07 67.6 °F 61.5 °F 30.1 in Calm   2 mph 81 % 0 in
09:12 67.8 °F 62.1 °F 30.1 in Calm   3 mph 82 % 0 in
09:17 68.2 °F 62.1 °F 30.1 in SSE 1 mph 3 mph 81 % 0 in
09:22 68.7 °F 62.6 °F 30.1 in Calm   4 mph 81 % 0 in
09:27 69.6 °F 63.1 °F 30.1 in Calm   4 mph 80 % 0 in
09:32 70 °F 62.8 °F 30.1 in South 1 mph 3 mph 78 % 0 in
09:37 69.4 °F 62.2 °F 30.1 in SW 4 mph 4 mph 78 % 0 in
09:42 69.3 °F 62.4 °F 30.1 in Calm   4 mph 79 % 0 in
09:47 69.6 °F 62.4 °F 30.1 in SW 3 mph 4 mph 78 % 0 in
09:52 70 °F 62.8 °F 30.1 in ESE 1 mph 4 mph 78 % 0 in
09:57 70.7 °F 63.1 °F 30.1 in Calm   4 mph 77 % 0 in
10:02 71.4 °F 64.2 °F 30.1 in SSW 1 mph 5 mph 78 % 0 in
10:07 72 °F 63.7 °F 30.1 in Calm   5 mph 75 % 0 in
10:12 72.3 °F 63.9 °F 30.1 in Calm   5 mph 75 % 0 in
10:17 72.1 °F 63.3 °F 30.1 in SSW 4 mph 4 mph 74 % 0 in
10:22 72 °F 64.4 °F 30.1 in Calm   5 mph 77 % 0 in
10:27 72.9 °F 64.4 °F 30.1 in South 4 mph 5 mph 75 % 0 in
10:32 73 °F 64.6 °F 30.1 in SW 4 mph 5 mph 75 % 0 in
10:37 73 °F 63.9 °F 30.1 in SE 1 mph 5 mph 73 % 0 in
10:42 73.9 °F 64.4 °F 30.1 in SE 2 mph 5 mph 72 % 0 in
10:47 73.6 °F 63.7 °F 30.1 in SSW 1 mph 5 mph 71 % 0 in
10:52 73.9 °F 64.4 °F 30.1 in Calm   5 mph 72 % 0 in
11:02 74.5 °F 64.4 °F 30.1 in SSW 2 mph 5 mph 71 % 0 in
11:07 74.8 °F 63.5 °F 30.1 in South 5 mph 5 mph 68 % 0 in
11:12 74.8 °F 63.5 °F 30.1 in East 2 mph 5 mph 68 % 0 in
11:17 75 °F 63.7 °F 30.1 in SW 2 mph 6 mph 68 % 0 in
11:22 75 °F 63.3 °F 30.1 in SE 1 mph 6 mph 67 % 0 in
11:32 75.7 °F 62.8 °F 30.1 in SSW 5 mph 7 mph 64 % 0 in
11:37 75.9 °F 63.3 °F 30.1 in SW 2 mph 6 mph 65 % 0 in
11:42 76.1 °F 62.6 °F 30.1 in SW 2 mph 6 mph 63 % 0 in
11:47 76.5 °F 63 °F 30.1 in SW 3 mph 7 mph 63 % 0 in
11:52 76.6 °F 62.6 °F 30.1 in SE 3 mph 8 mph 62 % 0 in
11:57 76.6 °F 63.1 °F 30.1 in ENE 2 mph 8 mph 63 % 0 in
12:02 77.2 °F 63.1 °F 30.1 in SE 2 mph 8 mph 62 % 0 in
12:12 77.7 °F 63.1 °F 30.1 in Calm   6 mph 61 % 0 in
12:17 78.6 °F 63.1 °F 30.1 in ESE 3 mph 6 mph 59 % 0 in
12:22 78.4 °F 63.3 °F 30.1 in ESE 2 mph 7 mph 60 % 0 in
12:27 78.4 °F 63.9 °F 30.1 in SW 5 mph 7 mph 61 % 0 in
12:32 78.6 °F 64.6 °F 30.1 in South 3 mph 7 mph 62 % 0 in
12:37 78.8 °F 62.2 °F 30.1 in WSW 4 mph 6 mph 57 % 0 in
12:42 78.6 °F 61.2 °F 30.1 in SW 7 mph 8 mph 55 % 0 in
12:47 78.8 °F 61.7 °F 30.1 in ESE 5 mph 8 mph 56 % 0 in
12:52 79.3 °F 61.7 °F 30.1 in SW 2 mph 7 mph 55 % 0 in
12:57 79.3 °F 60.8 °F 30.1 in SW 2 mph 7 mph 53 % 0 in
13:02 79 °F 61.5 °F 30.1 in WSW 2 mph 10 mph 55 % 0 in
13:12 80.1 °F 62.4 °F 30.1 in SW 4 mph 7 mph 55 % 0 in
13:17 79.9 °F 62.8 °F 30.1 in Calm   10 mph 56 % 0 in
13:22 79.9 °F 63.3 °F 30.1 in South 3 mph 10 mph 57 % 0 in
13:27 79.5 °F 61.3 °F 30.1 in SSW 5 mph 10 mph 54 % 0 in
13:32 79.5 °F 59.7 °F 30.1 in West 3 mph 9 mph 51 % 0 in
13:37 79.9 °F 61.7 °F 30 in WSW 4 mph 9 mph 54 % 0 in
13:42 80.6 °F 61.9 °F 30 in SE 4 mph 8 mph 53 % 0 in
13:47 80.8 °F 61.5 °F 30 in WSW 5 mph 7 mph 52 % 0 in
13:52 80.8 °F 62.6 °F 30 in WSW 2 mph 10 mph 54 % 0 in
13:57 80.4 °F 62.8 °F 30 in South 8 mph 10 mph 55 % 0 in
14:02 80.8 °F 64 °F 30 in SW 9 mph 10 mph 57 % 0 in
14:07 80.4 °F 62.8 °F 30 in SSW 4 mph 11 mph 55 % 0 in
14:12 80.2 °F 62.6 °F 30 in SW 8 mph 12 mph 55 % 0 in
14:17 80.2 °F 63.1 °F 30 in WSW 3 mph 12 mph 56 % 0 in
14:22 80.4 °F 62.2 °F 30 in WSW 5 mph 12 mph 54 % 0 in
14:27 80.4 °F 62.2 °F 30 in SSW 6 mph 10 mph 54 % 0 in
14:32 81 °F 62.2 °F 30 in SSW 2 mph 9 mph 53 % 0 in
14:37 81.1 °F 63 °F 30 in SSW 6 mph 9 mph 54 % 0 in
14:42 81.1 °F 61.9 °F 30 in Calm   11 mph 52 % 0 in
14:47 81.9 °F 60.8 °F 30 in SSW 6 mph 11 mph 49 % 0 in
14:57 82 °F 61.5 °F 30 in SSE 4 mph 11 mph 50 % 0 in
15:02 82 °F 62.1 °F 30 in SSW 5 mph 11 mph 51 % 0 in
15:07 82 °F 61.5 °F 30 in SW 3 mph 11 mph 50 % 0 in
15:12 82 °F 62.1 °F 30 in WSW 4 mph 11 mph 51 % 0 in
15:17 81.3 °F 61 °F 30 in WSW 4 mph 10 mph 50 % 0 in
15:22 80.6 °F 61.3 °F 30 in WNW 1 mph 10 mph 52 % 0 in
15:27 81.1 °F 62.4 °F 30 in WNW 3 mph 9 mph 53 % 0 in
15:32 81 °F 60.6 °F 30 in West 6 mph 11 mph 50 % 0 in
15:37 79.7 °F 63.1 °F 30 in West 6 mph 12 mph 57 % 0 in
15:42 78.4 °F 63.3 °F 30 in WSW 9 mph 14 mph 60 % 0 in
15:47 77.7 °F 61.7 °F 30 in West 7 mph 14 mph 58 % 0 in
15:52 77.7 °F 62.2 °F 30 in WNW 6 mph 14 mph 59 % 0 in
15:57 78.3 °F 61.3 °F 30 in West 6 mph 13 mph 56 % 0 in
16:02 78.4 °F 61.5 °F 30 in West 5 mph 13 mph 56 % 0 in
16:07 78.4 °F 61.9 °F 30 in WSW 2 mph 10 mph 57 % 0 in
16:12 78.4 °F 61.9 °F 30 in WNW 4 mph 9 mph 57 % 0 in
16:17 78.3 °F 62.2 °F 30 in West 6 mph 9 mph 58 % 0 in
16:22 78.6 °F 63.1 °F 30 in West 5 mph 8 mph 59 % 0 in
16:27 78.6 °F 63.1 °F 30 in WSW 2 mph 8 mph 59 % 0 in
16:32 79 °F 63.5 °F 30 in West 3 mph 8 mph 59 % 0 in
16:37 79.3 °F 63.3 °F 30 in WNW 3 mph 9 mph 58 % 0 in
16:42 80.1 °F 61.9 °F 30 in West 4 mph 9 mph 54 % 0 in
16:47 80.8 °F 63.1 °F 30 in WSW 2 mph 9 mph 55 % 0 in
16:52 81.3 °F 64.6 °F 30 in WNW 3 mph 8 mph 57 % 0 in
16:57 81.1 °F 61.3 °F 30 in West 5 mph 8 mph 51 % 0 in
17:02 81 °F 62.8 °F 30 in SW 3 mph 11 mph 54 % 0 in
17:07 81 °F 62.2 °F 30 in SW 5 mph 11 mph 53 % 0 in
17:12 81 °F 62.2 °F 30 in WSW 6 mph 10 mph 53 % 0 in
17:17 81 °F 62.8 °F 30 in SW 6 mph 10 mph 54 % 0 in
17:22 81.3 °F 62.6 °F 30 in WNW 3 mph 10 mph 53 % 0 in
17:27 81.7 °F 63.5 °F 30 in West 3 mph 10 mph 54 % 0 in
17:32 81.9 °F 62.4 °F 30 in SW 6 mph 8 mph 52 % 0 in
17:37 81.5 °F 61.7 °F 30 in SW 2 mph 8 mph 51 % 0 in
17:42 81.3 °F 63.7 °F 30 in WSW 5 mph 11 mph 55 % 0 in
17:47 81.3 °F 63.7 °F 30 in West 3 mph 11 mph 55 % 0 in
17:52 81.5 °F 62.8 °F 30 in SW 3 mph 11 mph 53 % 0 in
17:57 81.9 °F 63 °F 30 in SSW 4 mph 10 mph 53 % 0 in
18:02 81.7 °F 63.5 °F 30 in South 3 mph 10 mph 54 % 0 in
18:07 82 °F 62.6 °F 30 in WSW 4 mph 10 mph 52 % 0 in
18:12 82 °F 62.1 °F 30 in West 6 mph 8 mph 51 % 0 in
18:17 81.9 °F 61.3 °F 30 in SW 7 mph 9 mph 50 % 0 in
18:22 81.7 °F 61.9 °F 30 in SW 4 mph 9 mph 51 % 0 in
18:27 81.9 °F 61.9 °F 30 in West 3 mph 11 mph 51 % 0 in
18:32 81.5 °F 62.2 °F 30 in WSW 5 mph 11 mph 52 % 0 in
18:42 80.6 °F 61.9 °F 30 in WSW 4 mph 9 mph 53 % 0 in
18:47 80.1 °F 61.3 °F 30 in WSW 3 mph 9 mph 53 % 0 in
18:52 79.5 °F 61.9 °F 30 in WSW 3 mph 9 mph 55 % 0 in
18:57 79.2 °F 62.1 °F 30 in WSW 3 mph 9 mph 56 % 0 in
19:02 78.8 °F 62.2 °F 30 in SW 2 mph 7 mph 57 % 0 in
19:07 78.4 °F 61.9 °F 30 in West 5 mph 7 mph 57 % 0 in
19:12 77.7 °F 62.2 °F 30 in WSW 7 mph 10 mph 59 % 0 in
19:17 76.8 °F 63.3 °F 30 in West 8 mph 11 mph 63 % 0 in
19:22 75.9 °F 62.8 °F 30 in WSW 5 mph 12 mph 64 % 0 in
19:27 75.6 °F 63.3 °F 30 in West 2 mph 12 mph 66 % 0 in
19:32 75.6 °F 63.3 °F 30 in WNW 2 mph 9 mph 66 % 0 in
19:42 75.7 °F 62.2 °F 30 in WSW 3 mph 6 mph 63 % 0 in
19:47 75.7 °F 60.8 °F 30 in West 3 mph 6 mph 60 % 0 in
19:52 75.7 °F 61.3 °F 30 in West 1 mph 6 mph 61 % 0 in
19:57 75.9 °F 61 °F 30 in West 1 mph 6 mph 60 % 0 in
20:02 76.5 °F 62.1 °F 30 in WNW 1 mph 5 mph 61 % 0 in
20:07 76.6 °F 61.7 °F 30 in West 2 mph 4 mph 60 % 0 in
20:12 77.2 °F 61.7 °F 30 in West 2 mph 4 mph 59 % 0 in
20:17 77.2 °F 61.7 °F 30 in West 1 mph 4 mph 59 % 0 in
20:22 77.4 °F 62.4 °F 30 in WNW 1 mph 4 mph 60 % 0 in
20:32 77.4 °F 62.8 °F 30 in West 1 mph 3 mph 61 % 0 in
20:37 77.2 °F 62.6 °F 30 in West 1 mph 3 mph 61 % 0 in
20:42 76.8 °F 62.8 °F 30 in West 2 mph 5 mph 62 % 0 in
20:47 76.5 °F 63 °F 30 in WSW 2 mph 5 mph 63 % 0 in
20:52 75.9 °F 63.3 °F 30 in West 3 mph 5 mph 65 % 0 in
20:57 75.6 °F 63.9 °F 30 in WSW 1 mph 4 mph 67 % 0 in
21:02 75 °F 63.7 °F 30 in WSW 2 mph 4 mph 68 % 0 in
21:07 74.7 °F 63.9 °F 30 in WSW 3 mph 4 mph 69 % 0 in
21:12 74.5 °F 63.7 °F 30 in West 2 mph 4 mph 69 % 0 in
21:17 73.9 °F 63.5 °F 30 in WSW 2 mph 4 mph 70 % 0 in
21:22 73.9 °F 63.5 °F 30 in West 1 mph 4 mph 70 % 0 in
21:27 73.6 °F 63.7 °F 30 in West 1 mph 3 mph 71 % 0 in
21:32 73.2 °F 63.7 °F 30 in WSW 1 mph 3 mph 72 % 0 in
21:37 72.9 °F 63.3 °F 30 in Calm   3 mph 72 % 0 in
21:42 72.7 °F 63.5 °F 30 in WNW 1 mph 3 mph 73 % 0 in
21:47 72.3 °F 63.1 °F 30 in WNW 1 mph 2 mph 73 % 0 in
21:52 72 °F 62.4 °F 30 in NNW 7 mph 7 mph 72 % 0 in
22:02 71.1 °F 59.5 °F 30 in NNE 2 mph 17 mph 67 % 0 in
22:07 70.7 °F 59.5 °F 30 in WNW 2 mph 11 mph 68 % 0 in
22:12 70.3 °F 59.4 °F 30 in NNW 2 mph 8 mph 68 % 0 in
22:22 69.8 °F 59.5 °F 30 in NW 1 mph 5 mph 70 % 0 in
22:27 69.4 °F 59.5 °F 30 in Calm   4 mph 71 % 0 in
22:32 69.1 °F 59.4 °F 30 in Calm   3 mph 71 % 0 in
22:37 69.1 °F 59.7 °F 30 in Calm   2 mph 72 % 0 in
22:42 68.7 °F 60.1 °F 30 in Calm   2 mph 74 % 0 in
22:47 68.5 °F 60.3 °F 30 in Calm   2 mph 75 % 0 in
22:52 68.4 °F 60.4 °F 30 in NW 1 mph 2 mph 76 % 0 in
22:57 68.5 °F 60.6 °F 30 in Calm   2 mph 76 % 0 in
23:02 68.5 °F 61 °F 30 in Calm   2 mph 77 % 0 in
23:12 67.6 °F 60.3 °F 30 in Calm   4 mph 77 % 0 in
23:17 67.5 °F 60.1 °F 30 in Calm   4 mph 77 % 0 in
23:22 67.3 °F 59.9 °F 30 in Calm   3 mph 77 % 0 in
23:27 66.9 °F 60.3 °F 30 in Calm   1 mph 79 % 0 in
23:37 66 °F 60.4 °F 30 in NE 2 mph 4 mph 82 % 0 in
23:42 66.2 °F 60.8 °F 30 in Calm   4 mph 83 % 0 in
23:47 66.2 °F 60.8 °F 30 in Calm   4 mph 83 % 0 in
23:52 66 °F 60.6 °F 30 in Calm   3 mph 83 % 0 in
23:57 66 °F 61.3 °F 30 in Calm   1 mph 85 % 0 in
Meteo18
Compliments of Weather Underground - 4 mb

Script developed by  Jim McMurry - jmcmurry@mwt.net Adapted for the template by  Wim van der Kuil - Leuven-Template.eu

You find our weather info also at:

European Weather Network

Weather Underground

Equipment we use:

Weather-station
Davis Vue

Weather-program
Meteohub

Weather-server
Raspberry PI 2 B+

Provider
1 and 1

Davis Vue

Meteohub

Raspberry PI 2 B+

1 and 1